sensor_id;sensor_type;location;lat;lon;timestamp;pressure;altitude;pressure_sealevel;temperature;humidity
43553;BME280;29153;42.696;23.218;2023-03-01T00:00:08;94911.89;;;5.84;100.00
43553;BME280;29153;42.696;23.218;2023-03-01T00:02:36;94905.79;;;5.81;100.00
43553;BME280;29153;42.696;23.218;2023-03-01T00:05:04;94900.13;;;5.86;100.00
43553;BME280;29153;42.696;23.218;2023-03-01T00:07:33;94901.27;;;5.79;100.00
43553;BME280;29153;42.696;23.218;2023-03-01T00:10:01;94899.12;;;5.76;100.00
43553;BME280;29153;42.696;23.218;2023-03-01T00:12:28;94900.33;;;5.71;100.00
43553;BME280;29153;42.696;23.218;2023-03-01T00:14:55;94897.19;;;5.71;100.00
43553;BME280;29153;42.696;23.218;2023-03-01T00:17:23;94891.03;;;5.66;100.00
43553;BME280;29153;42.696;23.218;2023-03-01T00:19:50;94851.88;;;5.53;100.00
43553;BME280;29153;42.696;23.218;2023-03-01T00:22:18;94891.69;;;5.59;100.00
43553;BME280;29153;42.696;23.218;2023-03-01T00:24:46;94888.79;;;5.72;100.00
43553;BME280;29153;42.696;23.218;2023-03-01T00:27:14;94882.77;;;5.74;100.00
43553;BME280;29153;42.696;23.218;2023-03-01T00:29:41;94879.67;;;5.63;100.00
43553;BME280;29153;42.696;23.218;2023-03-01T00:32:09;94875.33;;;5.68;100.00
43553;BME280;29153;42.696;23.218;2023-03-01T00:34:36;94875.70;;;5.60;100.00
43553;BME280;29153;42.696;23.218;2023-03-01T00:37:03;94870.77;;;5.64;100.00
43553;BME280;29153;42.696;23.218;2023-03-01T00:39:32;94860.16;;;5.59;100.00
43553;BME280;29153;42.696;23.218;2023-03-01T00:42:00;94859.30;;;5.70;100.00
43553;BME280;29153;42.696;23.218;2023-03-01T00:44:27;94864.95;;;5.76;100.00
43553;BME280;29153;42.696;23.218;2023-03-01T00:46:55;94859.81;;;5.69;100.00
43553;BME280;29153;42.696;23.218;2023-03-01T00:49:23;94862.51;;;5.72;100.00
43553;BME280;29153;42.696;23.218;2023-03-01T00:51:52;94861.80;;;5.62;100.00
43553;BME280;29153;42.696;23.218;2023-03-01T00:54:19;94860.89;;;5.57;100.00
43553;BME280;29153;42.696;23.218;2023-03-01T00:56:47;94868.66;;;5.63;100.00
43553;BME280;29153;42.696;23.218;2023-03-01T00:59:14;94865.55;;;5.66;100.00
43553;BME280;29153;42.696;23.218;2023-03-01T01:01:42;94871.13;;;5.70;100.00
43553;BME280;29153;42.696;23.218;2023-03-01T01:04:11;94873.57;;;5.74;100.00
43553;BME280;29153;42.696;23.218;2023-03-01T01:06:44;94809.69;;;5.31;100.00
43553;BME280;29153;42.696;23.218;2023-03-01T01:09:16;94873.58;;;5.60;100.00
43553;BME280;29153;42.696;23.218;2023-03-01T01:11:46;94873.66;;;5.50;100.00
43553;BME280;29153;42.696;23.218;2023-03-01T01:14:14;94865.67;;;5.45;100.00
43553;BME280;29153;42.696;23.218;2023-03-01T01:16:42;94861.00;;;5.47;100.00
43553;BME280;29153;42.696;23.218;2023-03-01T01:19:11;94861.36;;;5.54;100.00
43553;BME280;29153;42.696;23.218;2023-03-01T01:21:40;94858.30;;;5.45;100.00
43553;BME280;29153;42.696;23.218;2023-03-01T01:24:09;94855.45;;;5.46;100.00
43553;BME280;29153;42.696;23.218;2023-03-01T01:26:37;94861.00;;;5.47;100.00
43553;BME280;29153;42.696;23.218;2023-03-01T01:29:05;94861.81;;;5.36;100.00
43553;BME280;29153;42.696;23.218;2023-03-01T01:31:34;94860.13;;;5.44;100.00
43553;BME280;29153;42.696;23.218;2023-03-01T01:34:04;94862.58;;;5.34;100.00
43553;BME280;29153;42.696;23.218;2023-03-01T01:36:33;94863.96;;;5.25;100.00
43553;BME280;29153;42.696;23.218;2023-03-01T01:39:02;94865.34;;;5.42;100.00
43553;BME280;29153;42.696;23.218;2023-03-01T01:41:30;94876.14;;;5.17;100.00
43553;BME280;29153;42.696;23.218;2023-03-01T01:44:16;94884.89;;;5.09;100.00
43553;BME280;29153;42.696;23.218;2023-03-01T01:46:50;94882.70;;;5.05;100.00
43553;BME280;29153;42.696;23.218;2023-03-01T01:49:22;94883.14;;;5.14;100.00
43553;BME280;29153;42.696;23.218;2023-03-01T01:51:49;94887.75;;;5.33;100.00
43553;BME280;29153;42.696;23.218;2023-03-01T01:54:27;94884.33;;;5.32;100.00
43553;BME280;29153;42.696;23.218;2023-03-01T01:57:00;94878.84;;;5.34;100.00
43553;BME280;29153;42.696;23.218;2023-03-01T01:59:29;94867.06;;;5.36;100.00
43553;BME280;29153;42.696;23.218;2023-03-01T02:01:59;94866.80;;;5.49;100.00
43553;BME280;29153;42.696;23.218;2023-03-01T02:04:29;94867.69;;;5.41;100.00
43553;BME280;29153;42.696;23.218;2023-03-01T02:07:09;94866.48;;;5.46;100.00
43553;BME280;29153;42.696;23.218;2023-03-01T02:09:36;94857.58;;;5.47;100.00
43553;BME280;29153;42.696;23.218;2023-03-01T02:12:04;94851.27;;;5.34;100.00
43553;BME280;29153;42.696;23.218;2023-03-01T02:14:34;94839.51;;;5.50;100.00
43553;BME280;29153;42.696;23.218;2023-03-01T02:17:01;94842.11;;;5.36;100.00
43553;BME280;29153;42.696;23.218;2023-03-01T02:19:52;94831.89;;;5.37;100.00
43553;BME280;29153;42.696;23.218;2023-03-01T02:22:27;94834.13;;;5.31;100.00
43553;BME280;29153;42.696;23.218;2023-03-01T02:30:44;94847.04;;;5.33;100.00
43553;BME280;29153;42.696;23.218;2023-03-01T02:33:31;94848.39;;;5.21;100.00
43553;BME280;29153;42.696;23.218;2023-03-01T02:36:09;94852.58;;;5.34;100.00
43553;BME280;29153;42.696;23.218;2023-03-01T02:38:40;94855.06;;;5.40;99.81
43553;BME280;29153;42.696;23.218;2023-03-01T02:41:10;94860.20;;;5.47;99.54
43553;BME280;29153;42.696;23.218;2023-03-01T02:43:39;94859.07;;;5.43;99.16
43553;BME280;29153;42.696;23.218;2023-03-01T02:46:13;94854.58;;;5.55;98.78
43553;BME280;29153;42.696;23.218;2023-03-01T02:48:46;94854.67;;;5.60;98.32
43553;BME280;29153;42.696;23.218;2023-03-01T02:54:17;94852.83;;;5.46;97.52
43553;BME280;29153;42.696;23.218;2023-03-01T02:56:44;94848.80;;;5.56;97.44
43553;BME280;29153;42.696;23.218;2023-03-01T02:59:15;94847.53;;;5.58;97.64
43553;BME280;29153;42.696;23.218;2023-03-01T03:01:43;94848.41;;;5.49;97.63
43553;BME280;29153;42.696;23.218;2023-03-01T03:04:17;94846.45;;;5.42;98.10
43553;BME280;29153;42.696;23.218;2023-03-01T03:06:45;94844.47;;;5.49;98.59
43553;BME280;29153;42.696;23.218;2023-03-01T03:09:14;94840.86;;;5.53;98.47
43553;BME280;29153;42.696;23.218;2023-03-01T03:11:42;94844.80;;;5.53;98.27
43553;BME280;29153;42.696;23.218;2023-03-01T03:14:12;94847.06;;;5.47;98.70
43553;BME280;29153;42.696;23.218;2023-03-01T03:16:48;94846.55;;;5.47;98.71
43553;BME280;29153;42.696;23.218;2023-03-01T03:19:18;94848.68;;;5.36;99.40
43553;BME280;29153;42.696;23.218;2023-03-01T03:21:46;94841.86;;;5.24;99.99
43553;BME280;29153;42.696;23.218;2023-03-01T03:24:14;94855.72;;;5.33;99.88
43553;BME280;29153;42.696;23.218;2023-03-01T03:26:41;94856.34;;;5.26;100.00
43553;BME280;29153;42.696;23.218;2023-03-01T03:29:09;94853.83;;;5.31;100.00
43553;BME280;29153;42.696;23.218;2023-03-01T03:31:36;94858.01;;;5.04;100.00
43553;BME280;29153;42.696;23.218;2023-03-01T03:34:03;94856.23;;;5.07;100.00
43553;BME280;29153;42.696;23.218;2023-03-01T03:36:31;94859.31;;;5.04;100.00
43553;BME280;29153;42.696;23.218;2023-03-01T03:38:58;94862.25;;;5.19;100.00
43553;BME280;29153;42.696;23.218;2023-03-01T03:41:26;94857.17;;;5.15;100.00
43553;BME280;29153;42.696;23.218;2023-03-01T03:43:53;94859.31;;;5.04;100.00
43553;BME280;29153;42.696;23.218;2023-03-01T03:46:38;94865.23;;;5.11;100.00
43553;BME280;29153;42.696;23.218;2023-03-01T03:49:06;94864.21;;;5.12;100.00
43553;BME280;29153;42.696;23.218;2023-03-01T03:51:33;94865.02;;;5.13;100.00
43553;BME280;29153;42.696;23.218;2023-03-01T03:54:01;94863.13;;;5.11;100.00
43553;BME280;29153;42.696;23.218;2023-03-01T03:56:28;94864.34;;;4.94;100.00
43553;BME280;29153;42.696;23.218;2023-03-01T03:59:14;94858.54;;;4.92;100.00
43553;BME280;29153;42.696;23.218;2023-03-01T04:01:41;94856.42;;;4.91;100.00
43553;BME280;29153;42.696;23.218;2023-03-01T04:04:10;94852.14;;;4.76;100.00
43553;BME280;29153;42.696;23.218;2023-03-01T04:06:38;94859.95;;;4.85;100.00
43553;BME280;29153;42.696;23.218;2023-03-01T04:09:05;94862.97;;;4.80;100.00
43553;BME280;29153;42.696;23.218;2023-03-01T04:11:33;94861.12;;;4.66;100.00
43553;BME280;29153;42.696;23.218;2023-03-01T04:14:01;94864.63;;;4.72;100.00
43553;BME280;29153;42.696;23.218;2023-03-01T04:16:30;94864.00;;;4.67;100.00
43553;BME280;29153;42.696;23.218;2023-03-01T04:18:58;94865.94;;;4.72;100.00
43553;BME280;29153;42.696;23.218;2023-03-01T04:21:26;94870.22;;;4.64;100.00
43553;BME280;29153;42.696;23.218;2023-03-01T04:23:54;94866.45;;;4.71;100.00
43553;BME280;29153;42.696;23.218;2023-03-01T04:26:21;94860.31;;;4.66;100.00
43553;BME280;29153;42.696;23.218;2023-03-01T04:28:49;94861.00;;;4.61;100.00
43553;BME280;29153;42.696;23.218;2023-03-01T04:31:18;94864.69;;;4.63;100.00
43553;BME280;29153;42.696;23.218;2023-03-01T04:33:54;94857.52;;;4.70;100.00
43553;BME280;29153;42.696;23.218;2023-03-01T04:36:25;94861.11;;;4.78;100.00
43553;BME280;29153;42.696;23.218;2023-03-01T04:38:53;94857.52;;;4.70;100.00
43553;BME280;29153;42.696;23.218;2023-03-01T04:41:23;94854.88;;;4.58;100.00
43553;BME280;29153;42.696;23.218;2023-03-01T04:43:51;94846.73;;;4.69;100.00
43553;BME280;29153;42.696;23.218;2023-03-01T04:46:20;94839.41;;;4.71;100.00
43553;BME280;29153;42.696;23.218;2023-03-01T04:48:48;94847.45;;;4.67;100.00
43553;BME280;29153;42.696;23.218;2023-03-01T04:51:16;94843.14;;;4.61;100.00
43553;BME280;29153;42.696;23.218;2023-03-01T04:53:45;94841.42;;;4.43;100.00
43553;BME280;29153;42.696;23.218;2023-03-01T04:56:13;94845.06;;;4.42;100.00
43553;BME280;29153;42.696;23.218;2023-03-01T04:58:41;94844.45;;;4.61;100.00
43553;BME280;29153;42.696;23.218;2023-03-01T05:01:13;94847.75;;;4.68;100.00
43553;BME280;29153;42.696;23.218;2023-03-01T05:03:51;94840.78;;;4.50;100.00
43553;BME280;29153;42.696;23.218;2023-03-01T05:06:15;94843.61;;;4.57;100.00
43553;BME280;29153;42.696;23.218;2023-03-01T05:08:44;94851.70;;;4.44;100.00
43553;BME280;29153;42.696;23.218;2023-03-01T05:11:12;94848.61;;;4.47;100.00
43553;BME280;29153;42.696;23.218;2023-03-01T05:13:39;94853.98;;;4.52;100.00
43553;BME280;29153;42.696;23.218;2023-03-01T05:16:08;94857.03;;;4.49;100.00
43553;BME280;29153;42.696;23.218;2023-03-01T05:18:39;94853.09;;;4.49;100.00
43553;BME280;29153;42.696;23.218;2023-03-01T05:21:13;94862.06;;;4.39;100.00
43553;BME280;29153;42.696;23.218;2023-03-01T05:23:42;94858.68;;;4.41;100.00
43553;BME280;29153;42.696;23.218;2023-03-01T05:26:10;94862.45;;;4.45;100.00
43553;BME280;29153;42.696;23.218;2023-03-01T05:28:39;94870.31;;;4.45;100.00
43553;BME280;29153;42.696;23.218;2023-03-01T05:31:07;94869.94;;;4.51;100.00
43553;BME280;29153;42.696;23.218;2023-03-01T05:33:37;94859.56;;;4.44;100.00
43553;BME280;29153;42.696;23.218;2023-03-01T05:36:04;94856.18;;;4.58;100.00
43553;BME280;29153;42.696;23.218;2023-03-01T05:38:31;94858.80;;;4.46;100.00
43553;BME280;29153;42.696;23.218;2023-03-01T05:40:59;94856.19;;;4.46;100.00
43553;BME280;29153;42.696;23.218;2023-03-01T05:43:29;94858.00;;;4.34;100.00
43553;BME280;29153;42.696;23.218;2023-03-01T05:45:57;94864.73;;;4.42;100.00
43553;BME280;29153;42.696;23.218;2023-03-01T05:48:24;94860.88;;;4.44;100.00
43553;BME280;29153;42.696;23.218;2023-03-01T05:50:52;94863.66;;;4.40;100.00
43553;BME280;29153;42.696;23.218;2023-03-01T05:53:20;94872.59;;;4.42;100.00
43553;BME280;29153;42.696;23.218;2023-03-01T05:55:48;94881.86;;;4.56;100.00
43553;BME280;29153;42.696;23.218;2023-03-01T05:58:18;94881.64;;;4.57;100.00
43553;BME280;29153;42.696;23.218;2023-03-01T06:00:48;94881.64;;;4.57;100.00
43553;BME280;29153;42.696;23.218;2023-03-01T06:03:17;94884.66;;;4.64;100.00
43553;BME280;29153;42.696;23.218;2023-03-01T06:05:45;94884.73;;;4.78;100.00
43553;BME280;29153;42.696;23.218;2023-03-01T06:08:13;94895.27;;;4.69;100.00
43553;BME280;29153;42.696;23.218;2023-03-01T06:10:41;94896.51;;;4.54;100.00
43553;BME280;29153;42.696;23.218;2023-03-01T06:13:08;94892.98;;;4.61;100.00
43553;BME280;29153;42.696;23.218;2023-03-01T06:15:36;94893.27;;;4.85;100.00
43553;BME280;29153;42.696;23.218;2023-03-01T06:18:03;94900.42;;;4.87;100.00
43553;BME280;29153;42.696;23.218;2023-03-01T06:20:31;94904.28;;;4.61;100.00
43553;BME280;29153;42.696;23.218;2023-03-01T06:22:58;94907.29;;;4.55;100.00
43553;BME280;29153;42.696;23.218;2023-03-01T06:25:27;94906.33;;;4.71;100.00
43553;BME280;29153;42.696;23.218;2023-03-01T06:27:54;94909.83;;;4.85;100.00
43553;BME280;29153;42.696;23.218;2023-03-01T06:30:23;94911.47;;;4.89;100.00
43553;BME280;29153;42.696;23.218;2023-03-01T06:32:51;94906.93;;;4.96;100.00
43553;BME280;29153;42.696;23.218;2023-03-01T06:35:19;94908.50;;;4.97;100.00
43553;BME280;29153;42.696;23.218;2023-03-01T06:37:47;94909.47;;;5.05;100.00
43553;BME280;29153;42.696;23.218;2023-03-01T06:40:15;94910.34;;;5.08;100.00
43553;BME280;29153;42.696;23.218;2023-03-01T06:42:47;94905.94;;;5.11;100.00
43553;BME280;29153;42.696;23.218;2023-03-01T06:45:12;94909.13;;;5.25;100.00
43553;BME280;29153;42.696;23.218;2023-03-01T06:47:40;94911.79;;;5.27;100.00
43553;BME280;29153;42.696;23.218;2023-03-01T06:50:08;94910.52;;;5.41;100.00
43553;BME280;29153;42.696;23.218;2023-03-01T06:52:37;94908.52;;;5.46;100.00
43553;BME280;29153;42.696;23.218;2023-03-01T06:55:05;94910.80;;;5.31;100.00
43553;BME280;29153;42.696;23.218;2023-03-01T06:57:33;94906.34;;;5.17;100.00
43553;BME280;29153;42.696;23.218;2023-03-01T07:00:00;94913.39;;;5.28;100.00
43553;BME280;29153;42.696;23.218;2023-03-01T07:02:28;94922.52;;;5.37;100.00
43553;BME280;29153;42.696;23.218;2023-03-01T07:04:55;94916.62;;;5.44;100.00
43553;BME280;29153;42.696;23.218;2023-03-01T07:07:23;94919.94;;;5.52;99.72
43553;BME280;29153;42.696;23.218;2023-03-01T07:09:50;94914.09;;;5.49;99.60
43553;BME280;29153;42.696;23.218;2023-03-01T07:12:19;94909.56;;;5.33;100.00
43553;BME280;29153;42.696;23.218;2023-03-01T07:14:46;94911.36;;;5.56;99.99
43553;BME280;29153;42.696;23.218;2023-03-01T07:17:14;94902.30;;;5.64;99.16
43553;BME280;29153;42.696;23.218;2023-03-01T07:19:41;94908.69;;;5.68;98.47
43553;BME280;29153;42.696;23.218;2023-03-01T07:22:09;94905.47;;;5.77;98.59
43553;BME280;29153;42.696;23.218;2023-03-01T07:24:36;94904.13;;;5.89;97.97
43553;BME280;29153;42.696;23.218;2023-03-01T07:27:04;94904.20;;;6.08;97.62
43553;BME280;29153;42.696;23.218;2023-03-01T07:29:36;94904.30;;;6.13;96.36
43553;BME280;29153;42.696;23.218;2023-03-01T07:32:04;94902.41;;;6.25;95.68
43553;BME280;29153;42.696;23.218;2023-03-01T07:34:32;94895.80;;;6.23;94.74
43553;BME280;29153;42.696;23.218;2023-03-01T07:37:02;94897.02;;;6.32;94.79
43553;BME280;29153;42.696;23.218;2023-03-01T07:39:30;94900.50;;;6.37;95.24
43553;BME280;29153;42.696;23.218;2023-03-01T07:42:00;94898.25;;;6.60;93.31
43553;BME280;29153;42.696;23.218;2023-03-01T07:44:28;94842.28;;;6.31;93.21
43553;BME280;29153;42.696;23.218;2023-03-01T07:46:55;94895.20;;;6.66;92.42
43553;BME280;29153;42.696;23.218;2023-03-01T07:49:25;94904.23;;;6.72;91.43
43553;BME280;29153;42.696;23.218;2023-03-01T07:51:55;94902.48;;;6.78;90.70
43553;BME280;29153;42.696;23.218;2023-03-01T07:54:25;94899.45;;;6.86;89.78
43553;BME280;29153;42.696;23.218;2023-03-01T07:56:53;94893.97;;;6.71;90.01
43553;BME280;29153;42.696;23.218;2023-03-01T07:59:21;94893.97;;;6.71;89.79
43553;BME280;29153;42.696;23.218;2023-03-01T08:01:50;94884.55;;;6.75;89.81
43553;BME280;29153;42.696;23.218;2023-03-01T08:04:17;94887.05;;;6.84;89.70
43553;BME280;29153;42.696;23.218;2023-03-01T08:06:45;94891.52;;;6.83;89.97
43553;BME280;29153;42.696;23.218;2023-03-01T08:09:14;94893.45;;;6.71;89.82
43553;BME280;29153;42.696;23.218;2023-03-01T08:11:47;94884.50;;;6.56;89.17
43553;BME280;29153;42.696;23.218;2023-03-01T08:14:15;94888.05;;;6.64;89.73
43553;BME280;29153;42.696;23.218;2023-03-01T08:16:44;94891.27;;;6.85;89.52
43553;BME280;29153;42.696;23.218;2023-03-01T08:19:14;94889.35;;;6.80;88.28
43553;BME280;29153;42.696;23.218;2023-03-01T08:21:42;94884.02;;;6.92;87.40
43553;BME280;29153;42.696;23.218;2023-03-01T08:24:09;94887.98;;;6.95;87.55
43553;BME280;29153;42.696;23.218;2023-03-01T08:26:39;94889.53;;;6.74;88.59
43553;BME280;29153;42.696;23.218;2023-03-01T08:29:06;94886.91;;;6.93;88.65
43553;BME280;29153;42.696;23.218;2023-03-01T08:31:36;94891.38;;;7.09;88.54
43553;BME280;29153;42.696;23.218;2023-03-01T08:34:13;94889.96;;;7.23;88.97
43553;BME280;29153;42.696;23.218;2023-03-01T08:36:39;94897.28;;;7.19;87.08
43553;BME280;29153;42.696;23.218;2023-03-01T08:39:09;94891.19;;;7.16;86.90
43553;BME280;29153;42.696;23.218;2023-03-01T08:41:37;94892.33;;;6.84;87.19
43553;BME280;29153;42.696;23.218;2023-03-01T08:44:06;94883.16;;;7.06;88.46
43553;BME280;29153;42.696;23.218;2023-03-01T08:46:36;94886.13;;;7.12;88.75
43553;BME280;29153;42.696;23.218;2023-03-01T08:49:12;94893.89;;;7.21;87.29
43553;BME280;29153;42.696;23.218;2023-03-01T08:51:35;94892.04;;;7.02;87.25
43553;BME280;29153;42.696;23.218;2023-03-01T08:54:09;94892.77;;;7.14;87.24
43553;BME280;29153;42.696;23.218;2023-03-01T08:56:36;94889.92;;;7.18;87.69
43553;BME280;29153;42.696;23.218;2023-03-01T08:59:04;94893.24;;;7.30;86.74
43553;BME280;29153;42.696;23.218;2023-03-01T09:01:31;94889.30;;;7.52;86.86
43553;BME280;29153;42.696;23.218;2023-03-01T09:03:59;94894.08;;;7.14;85.80
43553;BME280;29153;42.696;23.218;2023-03-01T09:06:26;94890.74;;;7.21;86.35
43553;BME280;29153;42.696;23.218;2023-03-01T09:08:54;94897.53;;;7.58;85.81
43553;BME280;29153;42.696;23.218;2023-03-01T09:11:22;94892.39;;;7.47;86.02
43553;BME280;29153;42.696;23.218;2023-03-01T09:13:49;94892.41;;;7.71;84.41
43553;BME280;29153;42.696;23.218;2023-03-01T09:16:19;94897.94;;;7.91;83.41
43553;BME280;29153;42.696;23.218;2023-03-01T09:18:49;94897.45;;;7.72;82.25
43553;BME280;29153;42.696;23.218;2023-03-01T09:21:18;94895.61;;;7.32;83.72
43553;BME280;29153;42.696;23.218;2023-03-01T09:23:47;94882.30;;;7.63;83.98
43553;BME280;29153;42.696;23.218;2023-03-01T09:26:15;94893.00;;;7.54;83.94
43553;BME280;29153;42.696;23.218;2023-03-01T09:28:46;94888.08;;;7.84;83.10
43553;BME280;29153;42.696;23.218;2023-03-01T09:31:14;94889.98;;;7.89;82.55
43553;BME280;29153;42.696;23.218;2023-03-01T09:33:42;94892.69;;;7.96;80.99
43553;BME280;29153;42.696;23.218;2023-03-01T09:36:15;94897.64;;;8.14;80.94
43553;BME280;29153;42.696;23.218;2023-03-01T09:38:43;94891.61;;;8.16;80.94
43553;BME280;29153;42.696;23.218;2023-03-01T09:41:21;94882.38;;;8.19;80.98
43553;BME280;29153;42.696;23.218;2023-03-01T09:43:51;94885.53;;;8.16;79.42
43553;BME280;29153;42.696;23.218;2023-03-01T09:46:22;94879.34;;;8.05;81.24
43553;BME280;29153;42.696;23.218;2023-03-01T09:48:56;94879.56;;;8.01;80.67
43553;BME280;29153;42.696;23.218;2023-03-01T09:53:57;94880.95;;;8.09;79.97
43553;BME280;29153;42.696;23.218;2023-03-01T09:59:25;94871.42;;;8.05;81.31
43553;BME280;29153;42.696;23.218;2023-03-01T10:02:23;94859.59;;;8.35;79.79
43553;BME280;29153;42.696;23.218;2023-03-01T10:04:45;94857.45;;;8.32;78.70
43553;BME280;29153;42.696;23.218;2023-03-01T10:09:52;94861.75;;;8.40;79.08
43553;BME280;29153;42.696;23.218;2023-03-01T10:12:30;94862.92;;;8.25;78.99
43553;BME280;29153;42.696;23.218;2023-03-01T10:15:09;94859.30;;;8.31;79.40
43553;BME280;29153;42.696;23.218;2023-03-01T10:17:44;94861.61;;;8.28;80.31
43553;BME280;29153;42.696;23.218;2023-03-01T10:20:33;94855.20;;;8.45;79.79
43553;BME280;29153;42.696;23.218;2023-03-01T10:22:59;94853.59;;;8.42;79.09
43553;BME280;29153;42.696;23.218;2023-03-01T10:28:19;94854.21;;;8.51;78.77
43553;BME280;29153;42.696;23.218;2023-03-01T10:30:46;94856.84;;;8.24;79.57
43553;BME280;29153;42.696;23.218;2023-03-01T10:33:26;94859.05;;;8.33;78.28
43553;BME280;29153;42.696;23.218;2023-03-01T10:35:50;94851.22;;;7.89;80.23
43553;BME280;29153;42.696;23.218;2023-03-01T10:38:18;94845.50;;;8.27;79.78
43553;BME280;29153;42.696;23.218;2023-03-01T10:41:04;94846.81;;;8.51;79.69
43553;BME280;29153;42.696;23.218;2023-03-01T10:43:50;94841.55;;;8.56;78.45
43553;BME280;29153;42.696;23.218;2023-03-01T10:46:32;94834.18;;;8.29;80.46
43553;BME280;29153;42.696;23.218;2023-03-01T10:49:18;94839.36;;;8.43;79.36
43553;BME280;29153;42.696;23.218;2023-03-01T10:51:50;94843.22;;;8.33;78.80
43553;BME280;29153;42.696;23.218;2023-03-01T10:56:59;94833.55;;;8.16;79.60
43553;BME280;29153;42.696;23.218;2023-03-01T10:59:34;94832.92;;;8.04;80.58
43553;BME280;29153;42.696;23.218;2023-03-01T11:02:09;94838.39;;;8.00;81.23
43553;BME280;29153;42.696;23.218;2023-03-01T11:04:32;94833.89;;;8.25;80.51
43553;BME280;29153;42.696;23.218;2023-03-01T11:07:01;94834.28;;;8.39;79.91
43553;BME280;29153;42.696;23.218;2023-03-01T11:09:33;94840.45;;;8.49;79.90
43553;BME280;29153;42.696;23.218;2023-03-01T11:12:13;94846.72;;;8.41;78.76
43553;BME280;29153;42.696;23.218;2023-03-01T11:14:38;94847.04;;;8.20;79.55
43553;BME280;29153;42.696;23.218;2023-03-01T11:22:52;94829.83;;;8.12;79.32
43553;BME280;29153;42.696;23.218;2023-03-01T11:25:17;94830.59;;;8.13;78.94
43553;BME280;29153;42.696;23.218;2023-03-01T11:27:53;94821.41;;;8.18;80.27
43553;BME280;29153;42.696;23.218;2023-03-01T11:36:01;94816.25;;;8.60;78.47
43553;BME280;29153;42.696;23.218;2023-03-01T11:38:31;94820.83;;;8.38;79.39
43553;BME280;29153;42.696;23.218;2023-03-01T11:41:20;94807.88;;;8.36;78.53
43553;BME280;29153;42.696;23.218;2023-03-01T11:43:57;94801.03;;;8.38;78.91
43553;BME280;29153;42.696;23.218;2023-03-01T11:46:37;94802.64;;;8.41;78.65
43553;BME280;29153;42.696;23.218;2023-03-01T11:51:59;94787.56;;;8.76;77.81
43553;BME280;29153;42.696;23.218;2023-03-01T11:59:49;94785.68;;;8.35;78.26
43553;BME280;29153;42.696;23.218;2023-03-01T12:05:24;94784.59;;;8.31;79.69
43553;BME280;29153;42.696;23.218;2023-03-01T12:10:43;94778.69;;;8.50;79.78
43553;BME280;29153;42.696;23.218;2023-03-01T12:18:55;94773.77;;;8.69;78.23
43553;BME280;29153;42.696;23.218;2023-03-01T12:21:42;94769.92;;;8.42;78.70
43553;BME280;29153;42.696;23.218;2023-03-01T12:30:15;94767.48;;;8.73;78.78
43553;BME280;29153;42.696;23.218;2023-03-01T12:37:51;94761.64;;;9.23;76.81
43553;BME280;29153;42.696;23.218;2023-03-01T12:51:37;94773.91;;;9.56;73.98
43553;BME280;29153;42.696;23.218;2023-03-01T12:54:19;94773.91;;;9.56;74.54
43553;BME280;29153;42.696;23.218;2023-03-01T12:56:41;94775.79;;;9.66;74.42
43553;BME280;29153;42.696;23.218;2023-03-01T12:59:17;94764.70;;;9.89;73.32
43553;BME280;29153;42.696;23.218;2023-03-01T13:04:44;94765.75;;;9.81;73.15
43553;BME280;29153;42.696;23.218;2023-03-01T13:15:26;94766.70;;;9.32;74.27
43553;BME280;29153;42.696;23.218;2023-03-01T13:17:58;94754.20;;;9.17;74.47
43553;BME280;29153;42.696;23.218;2023-03-01T13:20:48;94761.55;;;9.07;75.73
43553;BME280;29153;42.696;23.218;2023-03-01T13:23:27;94763.76;;;9.23;75.29
43553;BME280;29153;42.696;23.218;2023-03-01T13:26:11;94755.82;;;9.26;75.43
43553;BME280;29153;42.696;23.218;2023-03-01T13:33:52;94770.66;;;9.32;74.78
43553;BME280;29153;42.696;23.218;2023-03-01T13:39:01;94765.30;;;9.17;74.94
43553;BME280;29153;42.696;23.218;2023-03-01T13:44:35;94762.88;;;9.07;76.09
43553;BME280;29153;42.696;23.218;2023-03-01T13:49:48;94757.15;;;9.23;76.30
43553;BME280;29153;42.696;23.218;2023-03-01T13:55:00;94752.89;;;9.14;74.94
43553;BME280;29153;42.696;23.218;2023-03-01T13:57:33;94754.18;;;9.09;75.97
43553;BME280;29153;42.696;23.218;2023-03-01T14:00:00;94752.61;;;9.16;75.91
43553;BME280;29153;42.696;23.218;2023-03-01T14:02:27;94755.53;;;9.14;75.89
43553;BME280;29153;42.696;23.218;2023-03-01T14:04:59;94746.23;;;9.04;76.10
43553;BME280;29153;42.696;23.218;2023-03-01T14:07:27;94742.37;;;9.35;76.73
43553;BME280;29153;42.696;23.218;2023-03-01T14:10:00;94745.23;;;9.16;76.45
43553;BME280;29153;42.696;23.218;2023-03-01T14:12:54;94734.91;;;9.14;77.18
43553;BME280;29153;42.696;23.218;2023-03-01T14:15:35;94738.62;;;9.21;77.03
43553;BME280;29153;42.696;23.218;2023-03-01T14:18:28;94728.45;;;8.85;78.44
43553;BME280;29153;42.696;23.218;2023-03-01T14:20:55;94740.83;;;8.79;78.43
43553;BME280;29153;42.696;23.218;2023-03-01T14:23:23;94745.80;;;8.71;79.05
43553;BME280;29153;42.696;23.218;2023-03-01T14:25:55;94740.23;;;8.69;78.91
43553;BME280;29153;42.696;23.218;2023-03-01T14:28:26;94733.67;;;8.77;79.46
43553;BME280;29153;42.696;23.218;2023-03-01T14:30:56;94728.80;;;8.51;79.29
43553;BME280;29153;42.696;23.218;2023-03-01T14:33:33;94729.64;;;8.59;79.38
43553;BME280;29153;42.696;23.218;2023-03-01T14:36:06;94733.33;;;8.61;79.68
43553;BME280;29153;42.696;23.218;2023-03-01T14:38:45;94733.73;;;8.40;79.86
43553;BME280;29153;42.696;23.218;2023-03-01T14:41:24;94730.33;;;8.45;81.18
43553;BME280;29153;42.696;23.218;2023-03-01T14:43:55;94732.89;;;8.35;81.17
43553;BME280;29153;42.696;23.218;2023-03-01T14:46:27;94731.20;;;8.21;81.91
43553;BME280;29153;42.696;23.218;2023-03-01T14:49:09;94729.52;;;8.07;81.71
43553;BME280;29153;42.696;23.218;2023-03-01T14:51:25;94730.32;;;8.10;82.66
43553;BME280;29153;42.696;23.218;2023-03-01T14:53:53;94724.86;;;7.88;82.56